Time;durP1;ratioP1;P1;durP2;ratioP2;P2;SDS_P1;SDS_P2;PMS_P1;PMS_P2;Temp;Humidity;BMP_temperature;BMP_pressure;BME280_temperature;BME280_humidity;BME280_pressure;Samples;Min_cycle;Max_cycle;Signal;HPM_P1;HPM_P2
2022/03/02 00:00:41;;;;;;;22.75;13.23;;;;;;;2.02;70.46;100776.78;5024024;28;20045;-21
2022/03/02 00:03:06;;;;;;;19.33;12.63;;;;;;;2.26;69.87;100767.53;5026817;28;20876;-22
2022/03/02 00:05:33;;;;;;;19.08;12.98;;;;;;;1.92;70.86;100768.09;5008541;28;20044;-21
2022/03/02 00:07:58;;;;;;;23.73;14.48;;;;;;;1.66;72.43;100755.63;5026208;28;20033;-21
2022/03/02 00:10:24;;;;;;;21.67;13.57;;;;;;;1.64;72.78;100746.22;4998839;28;20095;-21
2022/03/02 00:12:49;;;;;;;20.25;12.30;;;;;;;2.03;70.66;100749.50;5023294;28;20056;-20
2022/03/02 00:15:15;;;;;;;20.85;12.45;;;;;;;2.14;70.45;100745.84;5025786;28;20037;-21
2022/03/02 00:17:40;;;;;;;21.05;13.18;;;;;;;2.00;71.04;100750.63;5026511;28;20083;-21
2022/03/02 00:20:06;;;;;;;24.23;14.00;;;;;;;1.77;71.74;100744.09;5008987;28;20493;-20
2022/03/02 00:22:31;;;;;;;21.85;13.20;;;;;;;1.58;71.64;100732.66;5027846;28;20107;-21
2022/03/02 00:24:57;;;;;;;19.50;11.48;;;;;;;1.84;71.52;100734.66;5029934;28;20095;-21
2022/03/02 00:27:25;;;;;;;21.90;12.13;;;;;;;1.92;70.26;100734.75;5030224;28;20037;-20
2022/03/02 00:29:51;;;;;;;18.27;11.05;;;;;;;1.58;71.21;100711.63;5012286;28;20090;-21
2022/03/02 00:32:17;;;;;;;18.00;12.65;;;;;;;1.71;71.64;100716.56;5011411;28;20033;-20
2022/03/02 00:34:42;;;;;;;21.95;11.98;;;;;;;1.79;71.43;100718.47;5020618;28;20104;-21
2022/03/02 00:37:08;;;;;;;21.73;12.38;;;;;;;1.40;72.89;100718.63;5011598;28;20421;-21
2022/03/02 00:39:33;;;;;;;20.73;12.40;;;;;;;1.27;74.15;100726.81;4994702;28;20026;-21
2022/03/02 00:41:59;;;;;;;19.92;12.77;;;;;;;1.69;71.91;100720.31;4996101;28;20448;-20
2022/03/02 00:44:24;;;;;;;20.08;12.18;;;;;;;1.82;71.60;100715.56;5030246;28;20029;-20
2022/03/02 00:46:50;;;;;;;18.67;11.05;;;;;;;1.71;72.24;100715.72;5012385;28;20029;-20
2022/03/02 00:49:16;;;;;;;20.70;11.70;;;;;;;1.78;72.52;100706.31;5012541;28;20488;-21
2022/03/02 00:51:42;;;;;;;19.73;11.88;;;;;;;1.59;72.19;100687.00;4996195;28;20037;-20
2022/03/02 00:54:08;;;;;;;17.77;10.90;;;;;;;1.24;74.51;100702.63;5012627;28;20017;-20
2022/03/02 00:56:33;;;;;;;18.83;12.68;;;;;;;1.26;74.17;100705.94;5012344;28;20041;-20
2022/03/02 00:58:59;;;;;;;21.02;13.70;;;;;;;1.45;73.53;100705.03;4995514;28;20683;-21
2022/03/02 01:01:24;;;;;;;21.20;12.43;;;;;;;1.52;72.90;100706.94;5029732;28;20041;-19
2022/03/02 01:03:50;;;;;;;19.20;12.13;;;;;;;1.29;73.17;100695.13;5028584;28;20120;-20
2022/03/02 01:06:16;;;;;;;19.98;12.68;;;;;;;1.73;72.07;100698.00;5029701;28;20045;-20
2022/03/02 01:08:41;;;;;;;22.08;14.60;;;;;;;1.87;71.67;100704.59;5011777;28;20536;-20
2022/03/02 01:11:07;;;;;;;26.95;16.55;;;;;;;2.00;70.36;100684.88;5029389;28;20533;-21
2022/03/02 01:13:32;;;;;;;22.27;13.43;;;;;;;2.02;70.59;100697.84;5028223;28;20100;-21
2022/03/02 01:15:59;;;;;;;22.13;11.98;;;;;;;1.56;71.59;100670.69;4995457;28;20453;-21
2022/03/02 01:18:25;;;;;;;28.23;15.10;;;;;;;1.86;71.07;100692.41;5028390;28;20029;-20
2022/03/02 01:20:50;;;;;;;23.05;13.13;;;;;;;1.75;71.06;100686.38;5011504;28;20095;-20
2022/03/02 01:23:16;;;;;;;24.13;13.20;;;;;;;1.60;71.99;100682.56;5029475;28;20029;-21
2022/03/02 01:25:41;;;;;;;43.20;19.45;;;;;;;2.00;70.88;100684.88;4995049;28;20041;-21
2022/03/02 01:28:07;;;;;;;31.17;16.83;;;;;;;1.88;70.50;100664.16;5011623;28;20440;-20
2022/03/02 01:30:32;;;;;;;37.80;18.92;;;;;;;1.92;70.71;100676.03;5011388;28;20048;-21
2022/03/02 01:32:58;;;;;;;30.65;15.80;;;;;;;2.04;70.22;100663.50;5029012;28;20029;-20
2022/03/02 01:35:23;;;;;;;24.92;12.32;;;;;;;2.28;68.68;100666.38;5029308;28;20559;-20
2022/03/02 01:37:50;;;;;;;23.95;13.35;;;;;;;2.54;68.23;100665.63;5011208;28;20068;-26
2022/03/02 01:40:16;;;;;;;20.88;12.13;;;;;;;2.24;68.92;100661.56;5027641;28;20029;-20
2022/03/02 01:42:41;;;;;;;25.73;14.18;;;;;;;1.86;70.62;100645.91;5028766;28;20037;-20
2022/03/02 01:45:08;;;;;;;26.77;15.25;;;;;;;1.76;71.27;100658.28;4994190;28;20091;-20
2022/03/02 01:47:33;;;;;;;22.73;13.95;;;;;;;1.95;70.69;100655.53;5010886;28;20108;-21
2022/03/02 01:50:00;;;;;;;24.13;13.30;;;;;;;1.92;70.17;100650.59;5027659;28;20116;-21
2022/03/02 01:52:26;;;;;;;21.77;12.43;;;;;;;1.85;70.61;100638.16;5011456;28;20029;-20
2022/03/02 01:54:51;;;;;;;22.23;13.20;;;;;;;1.93;69.92;100641.69;5010643;28;20064;-20
2022/03/02 01:57:17;;;;;;;23.52;13.52;;;;;;;1.94;69.37;100635.47;5010808;28;20033;-21
2022/03/02 01:59:42;;;;;;;25.88;13.73;;;;;;;1.66;71.09;100634.66;5010685;28;20536;-20
2022/03/02 02:02:07;;;;;;;23.23;14.30;;;;;;;1.53;71.58;100640.28;5010970;28;20034;-21
2022/03/02 02:04:33;;;;;;;26.08;13.88;;;;;;;1.46;72.11;100633.94;5028710;28;20075;-21
2022/03/02 02:06:58;;;;;;;25.40;15.30;;;;;;;1.36;71.96;100627.91;5010929;28;20029;-21
2022/03/02 02:09:24;;;;;;;26.13;16.42;;;;;;;1.58;71.28;100627.50;4994430;28;20056;-21
2022/03/02 02:11:50;;;;;;;30.27;16.85;;;;;;;1.33;71.99;100605.38;5010418;28;20108;-20
2022/03/02 02:14:16;;;;;;;25.70;15.43;;;;;;;1.57;71.54;100620.59;5026764;28;20056;-20
2022/03/02 02:16:41;;;;;;;29.20;16.63;;;;;;;1.30;71.73;100617.97;5010557;28;20025;-21
2022/03/02 02:19:07;;;;;;;31.65;16.80;;;;;;;1.12;73.17;100615.25;5010554;28;20060;-21
2022/03/02 02:21:32;;;;;;;28.08;14.95;;;;;;;1.22;71.64;100584.53;5010967;28;20099;-20
2022/03/02 02:23:58;;;;;;;25.95;15.02;;;;;;;1.12;72.18;100605.56;5028551;28;20115;-20
2022/03/02 02:26:25;;;;;;;25.88;15.10;;;;;;;1.14;72.69;100603.63;4993973;28;20026;-21
2022/03/02 02:28:50;;;;;;;24.27;14.52;;;;;;;1.22;71.73;100605.53;4993813;28;20488;-20
2022/03/02 02:31:16;;;;;;;21.75;12.35;;;;;;;0.79;73.43;100599.88;4994165;28;20113;-20
2022/03/02 02:33:42;;;;;;;20.67;11.80;;;;;;;0.90;72.75;100604.16;5028310;28;20364;-21
2022/03/02 02:36:08;;;;;;;20.98;11.85;;;;;;;0.84;72.57;100594.22;5028095;28;20657;-20
2022/03/02 02:38:33;;;;;;;18.92;12.48;;;;;;;0.73;73.09;100579.44;4993751;28;20029;-21
2022/03/02 02:40:59;;;;;;;19.23;11.90;;;;;;;0.38;73.90;100590.56;4993754;28;20037;-20
2022/03/02 02:43:25;;;;;;;22.30;12.55;;;;;;;0.58;74.51;100600.06;5027827;28;20066;-20
2022/03/02 02:45:52;;;;;;;24.45;12.65;;;;;;;0.48;74.41;100595.81;5009794;28;20032;-21
2022/03/02 02:48:17;;;;;;;20.30;12.07;;;;;;;0.28;75.91;100611.56;5010073;28;20057;-20
2022/03/02 02:50:43;;;;;;;20.00;12.82;;;;;;;0.39;77.37;100603.56;5028113;28;20072;-20
2022/03/02 02:53:10;;;;;;;21.00;13.27;;;;;;;0.58;76.17;100612.38;5026455;28;20040;-21
2022/03/02 02:55:36;;;;;;;20.23;13.48;;;;;;;0.52;76.02;100576.19;5009966;28;20638;-22
2022/03/02 02:58:01;;;;;;;22.45;13.32;;;;;;;0.52;75.67;100594.56;5009579;28;20033;-21
2022/03/02 03:00:29;;;;;;;21.40;13.07;;;;;;;0.73;75.91;100599.63;5009958;28;20424;-20
2022/03/02 03:02:55;;;;;;;19.70;12.52;;;;;;;0.87;75.17;100599.16;5009619;28;20037;-20
2022/03/02 03:05:22;;;;;;;19.95;12.88;;;;;;;1.04;74.27;100587.09;5009684;28;20029;-21
2022/03/02 03:07:47;;;;;;;17.83;11.38;;;;;;;1.13;73.89;100588.03;5026217;28;20021;-21
2022/03/02 03:10:13;;;;;;;19.80;12.45;;;;;;;1.30;73.31;100589.88;4993321;28;20065;-21
2022/03/02 03:12:39;;;;;;;24.75;13.40;;;;;;;1.22;73.47;100589.78;5025966;28;20045;-21
2022/03/02 03:15:06;;;;;;;23.17;12.43;;;;;;;1.09;73.59;100581.41;5009392;28;20037;-20
2022/03/02 03:17:31;;;;;;;26.02;13.45;;;;;;;1.25;73.48;100584.25;4993239;28;20025;-21
2022/03/02 03:19:57;;;;;;;35.13;15.00;;;;;;;1.28;73.49;100585.75;5009605;28;20029;-21
2022/03/02 03:22:22;;;;;;;34.22;14.82;;;;;;;1.65;71.59;100580.41;5009604;28;20067;-21
2022/03/02 03:24:48;;;;;;;53.10;19.67;;;;;;;1.68;71.02;100593.28;5027140;28;20033;-21
2022/03/02 03:27:13;;;;;;;64.03;21.63;;;;;;;1.56;71.62;100591.84;5009590;28;20762;-20
2022/03/02 03:29:39;;;;;;;66.55;22.73;;;;;;;1.77;70.44;100594.19;5009760;28;20026;-21
2022/03/02 03:32:05;;;;;;;42.42;18.85;;;;;;;1.51;70.78;100573.88;5009758;28;20041;-22
2022/03/02 03:34:31;;;;;;;30.25;14.80;;;;;;;1.63;71.44;100598.16;5027325;28;20026;-20
2022/03/02 03:36:56;;;;;;;25.27;12.38;;;;;;;1.79;70.29;100594.88;5026986;28;20037;-21
2022/03/02 03:39:22;;;;;;;17.50;11.13;;;;;;;1.49;71.51;100588.13;4993205;28;20121;-22
2022/03/02 03:41:47;;;;;;;19.35;11.88;;;;;;;1.46;72.05;100591.06;5009473;28;20616;-21
2022/03/02 03:44:13;;;;;;;16.73;10.63;;;;;;;1.45;72.27;100587.63;5009554;28;20029;-20
2022/03/02 03:46:38;;;;;;;18.65;12.00;;;;;;;1.44;72.66;100599.09;5009379;28;20092;-21
2022/03/02 03:49:03;;;;;;;17.58;11.13;;;;;;;1.37;72.53;100592.78;4992801;28;20033;-20
2022/03/02 03:51:29;;;;;;;18.85;11.55;;;;;;;1.45;71.70;100582.34;5009512;28;20095;-21
2022/03/02 03:53:54;;;;;;;18.58;11.50;;;;;;;1.63;72.00;100581.56;5026957;28;20832;-20
2022/03/02 03:56:20;;;;;;;17.73;11.65;;;;;;;1.39;72.16;100580.31;5009068;28;20042;-21
2022/03/02 03:58:45;;;;;;;19.63;12.43;;;;;;;1.20;72.84;100582.03;5013131;28;20461;-22
2022/03/02 04:01:11;;;;;;;19.33;12.02;;;;;;;0.94;74.27;100575.78;5012939;28;20041;-20
2022/03/02 04:03:36;;;;;;;23.27;15.68;;;;;;;1.04;73.86;100581.81;5013312;28;20650;-21
2022/03/02 04:06:02;;;;;;;28.55;16.55;;;;;;;0.97;74.09;100570.25;5012950;28;20039;-20
2022/03/02 04:08:28;;;;;;;27.85;18.05;;;;;;;0.89;73.79;100557.03;4997005;28;20095;-20
2022/03/02 04:10:53;;;;;;;26.90;16.13;;;;;;;0.95;73.81;100567.78;5012779;28;20038;-20
2022/03/02 04:13:19;;;;;;;26.73;16.48;;;;;;;0.63;74.86;100578.63;5012987;28;20057;-20
2022/03/02 04:15:44;;;;;;;22.67;14.38;;;;;;;0.48;75.50;100577.44;5029590;28;20037;-20
2022/03/02 04:18:10;;;;;;;25.77;15.60;;;;;;;0.42;76.10;100555.19;5013369;28;20037;-21
2022/03/02 04:20:35;;;;;;;23.80;15.15;;;;;;;0.40;76.65;100576.31;5012795;28;20033;-21
2022/03/02 04:23:01;;;;;;;22.88;13.57;;;;;;;0.40;75.40;100586.81;4995992;28;20072;-20
2022/03/02 04:25:27;;;;;;;44.92;28.95;;;;;;;0.05;77.38;100583.97;5012475;28;20123;-20
2022/03/02 04:27:52;;;;;;;26.85;15.82;;;;;;;0.27;76.37;100583.69;5028959;28;20489;-20
2022/03/02 04:30:18;;;;;;;25.63;15.57;;;;;;;0.17;77.21;100591.53;5012519;28;20080;-21
2022/03/02 04:32:43;;;;;;;26.45;16.40;;;;;;;0.11;78.19;100584.22;5012296;28;20401;-21
2022/03/02 04:35:10;;;;;;;27.95;20.60;;;;;;;0.52;76.81;100573.56;5012217;28;20033;-21
2022/03/02 04:37:36;;;;;;;55.15;27.13;;;;;;;0.80;74.28;100572.66;5028888;28;20095;-21
2022/03/02 04:40:03;;;;;;;44.13;24.08;;;;;;;0.44;75.67;100578.69;5012290;28;20039;-21
2022/03/02 04:42:29;;;;;;;53.25;31.13;;;;;;;0.49;75.79;100565.97;5012925;28;20457;-21
2022/03/02 04:44:54;;;;;;;50.88;27.48;;;;;;;0.64;75.70;100569.81;5012196;28;20029;-21
2022/03/02 04:47:19;;;;;;;40.70;23.25;;;;;;;0.96;73.87;100552.81;5028827;28;20033;-21
2022/03/02 04:49:45;;;;;;;43.83;26.02;;;;;;;1.03;73.86;100576.75;5028759;28;20026;-20
2022/03/02 04:52:10;;;;;;;34.58;19.15;;;;;;;0.89;73.69;100572.78;5012240;28;20678;-21
2022/03/02 04:57:20;;;;;;;24.83;16.20;;;;;;;0.94;73.46;100573.16;5029986;28;20543;-20
2022/03/02 04:59:45;;;;;;;22.75;14.52;;;;;;;0.99;72.29;100557.81;5029933;28;20033;-21
2022/03/02 05:02:11;;;;;;;22.60;15.68;;;;;;;1.20;72.63;100575.97;5029754;28;20037;-21
2022/03/02 05:04:36;;;;;;;23.73;14.88;;;;;;;1.08;73.09;100562.19;5011690;28;20099;-20
2022/03/02 05:07:02;;;;;;;25.90;15.38;;;;;;;1.01;73.08;100566.38;4995193;28;20083;-20
2022/03/02 05:09:27;;;;;;;38.40;24.40;;;;;;;1.09;72.80;100570.91;5011693;28;20038;-21
2022/03/02 05:11:53;;;;;;;86.80;42.13;;;;;;;1.38;72.01;100574.22;5011443;28;20188;-20
2022/03/02 05:14:19;;;;;;;88.50;49.70;;;;;;;1.24;72.87;100561.56;5029723;28;20037;-21
2022/03/02 05:16:44;;;;;;;81.55;50.75;;;;;;;1.21;72.71;100577.63;5029840;28;20048;-21
2022/03/02 05:19:10;;;;;;;69.68;43.63;;;;;;;1.08;72.48;100580.56;5028104;28;20025;-21
2022/03/02 05:21:36;;;;;;;57.53;34.58;;;;;;;0.93;73.20;100571.50;5029430;28;20394;-21
2022/03/02 05:24:02;;;;;;;43.42;28.75;;;;;;;0.95;73.47;100582.72;4995467;28;20171;-20
2022/03/02 05:26:27;;;;;;;33.97;21.10;;;;;;;0.84;73.86;100580.25;5011506;28;20033;-21
2022/03/02 05:28:53;;;;;;;31.38;22.02;;;;;;;0.68;74.91;100576.44;5011545;28;20041;-20
2022/03/02 05:31:20;;;;;;;34.55;22.42;;;;;;;0.66;74.76;100565.25;5028423;28;20481;-22
2022/03/02 05:33:45;;;;;;;34.00;22.67;;;;;;;0.99;74.24;100586.69;5029304;28;20025;-21
2022/03/02 05:36:11;;;;;;;32.72;23.70;;;;;;;1.37;72.44;100577.00;5011240;28;20175;-21
2022/03/02 05:38:36;;;;;;;32.15;21.80;;;;;;;1.43;72.11;100576.41;5027641;28;20025;-21
2022/03/02 05:41:02;;;;;;;31.55;20.25;;;;;;;1.50;71.12;100558.25;5011141;28;20209;-21
2022/03/02 05:43:27;;;;;;;30.15;18.05;;;;;;;1.23;71.78;100580.09;5028082;28;20037;-20
2022/03/02 05:45:53;;;;;;;31.65;19.88;;;;;;;1.14;72.39;100577.34;5011214;28;20037;-21
2022/03/02 05:48:18;;;;;;;26.60;15.73;;;;;;;1.00;72.69;100575.22;5029059;28;20052;-21
2022/03/02 05:50:44;;;;;;;22.85;12.90;;;;;;;1.05;73.12;100580.06;5011481;28;20052;-21
2022/03/02 05:53:09;;;;;;;19.02;11.07;;;;;;;0.91;72.58;100545.41;5011026;28;20460;-21
2022/03/02 05:55:34;;;;;;;18.80;11.38;;;;;;;1.25;72.60;100573.75;5027744;28;20040;-21
2022/03/02 05:58:00;;;;;;;23.30;13.23;;;;;;;1.45;72.16;100582.34;4994809;28;20083;-22
2022/03/02 06:00:25;;;;;;;26.52;14.35;;;;;;;1.42;71.41;100585.25;5010980;28;20036;-20
2022/03/02 06:02:51;;;;;;;23.90;14.25;;;;;;;1.30;72.47;100591.69;5027290;28;20033;-20
2022/03/02 06:05:16;;;;;;;18.60;10.45;;;;;;;1.28;72.39;100598.88;5010589;28;20033;-20
2022/03/02 06:07:42;;;;;;;16.98;9.63;;;;;;;1.47;71.17;100588.28;5028582;28;20029;-20
2022/03/02 06:10:08;;;;;;;16.08;9.85;;;;;;;1.53;70.62;100581.59;5011115;28;20037;-20
2022/03/02 06:12:34;;;;;;;19.63;11.75;;;;;;;2.03;69.66;100583.75;4994296;28;20056;-21
2022/03/02 06:14:59;;;;;;;18.23;11.07;;;;;;;2.31;69.27;100597.66;5010506;28;20429;-21
2022/03/02 06:17:26;;;;;;;14.98;9.05;;;;;;;2.13;69.93;100591.59;4994276;28;20562;-20
2022/03/02 06:19:52;;;;;;;14.27;8.30;;;;;;;2.30;69.05;100603.06;5009907;28;20026;-22
2022/03/02 06:22:17;;;;;;;15.88;8.90;;;;;;;2.41;68.23;100598.41;5010489;28;20037;-20
2022/03/02 06:24:43;;;;;;;14.75;9.43;;;;;;;2.20;68.77;100605.78;4994746;28;20091;-20
2022/03/02 06:27:09;;;;;;;14.27;9.27;;;;;;;2.45;67.96;100590.19;4994181;28;20038;-20
2022/03/02 06:29:34;;;;;;;20.58;12.10;;;;;;;2.53;67.85;100600.78;5028233;28;20420;-21
2022/03/02 06:32:00;;;;;;;21.45;12.23;;;;;;;2.48;68.73;100597.78;4994079;28;20037;-20
2022/03/02 06:34:26;;;;;;;24.23;12.98;;;;;;;2.74;67.93;100608.34;5028187;28;20036;-20
2022/03/02 06:36:51;;;;;;;29.80;14.57;;;;;;;2.67;68.69;100604.66;5028162;28;20472;-20
2022/03/02 06:39:20;;;;;;;20.83;13.77;;;;;;;2.89;68.07;100595.44;5010232;28;20537;-20
2022/03/02 06:42:12;;;;;;;16.58;10.88;;;;;;;3.11;65.72;100597.53;5026700;28;20045;-21
2022/03/02 06:44:40;;;;;;;18.15;11.05;;;;;;;3.21;66.00;100592.97;5010096;28;20129;-21
2022/03/02 06:47:12;;;;;;;16.15;10.48;;;;;;;3.57;64.71;100592.75;5009788;28;20036;-20
2022/03/02 06:49:56;;;;;;;20.75;12.48;;;;;;;3.04;67.18;100598.31;5010426;28;20033;-21
2022/03/02 06:52:21;;;;;;;20.38;13.00;;;;;;;2.95;67.92;100581.63;5027819;28;20029;-21
2022/03/02 06:54:48;;;;;;;18.67;12.90;;;;;;;2.94;67.99;100587.88;5009993;28;20033;-22
2022/03/02 06:57:16;;;;;;;20.92;13.35;;;;;;;3.20;67.55;100598.38;4993541;28;20479;-21
2022/03/02 06:59:43;;;;;;;20.60;12.02;;;;;;;3.49;67.83;100608.56;5009755;28;20052;-20
2022/03/02 07:02:09;;;;;;;20.77;12.68;;;;;;;3.19;65.72;100576.47;5027879;28;20038;-20
2022/03/02 07:04:39;;;;;;;16.92;11.13;;;;;;;3.34;66.71;100602.25;5009724;28;20029;-21
2022/03/02 07:07:05;;;;;;;19.98;11.93;;;;;;;3.24;66.37;100577.81;5026112;28;20052;-20
2022/03/02 07:09:31;;;;;;;20.75;12.60;;;;;;;3.43;65.01;100582.81;5026323;28;20140;-20
2022/03/02 07:11:59;;;;;;;19.02;12.70;;;;;;;3.43;64.95;100574.91;5009625;28;20060;-21
2022/03/02 07:14:25;;;;;;;19.88;13.27;;;;;;;3.71;65.55;100590.50;5010143;28;20045;-20
2022/03/02 07:16:50;;;;;;;19.75;12.38;;;;;;;3.66;65.68;100588.34;5009770;28;20033;-20
2022/03/02 07:19:16;;;;;;;29.25;17.05;;;;;;;3.61;66.47;100591.44;5009689;28;20120;-20
2022/03/02 07:21:42;;;;;;;19.25;12.00;;;;;;;3.69;66.85;100584.56;5010044;28;20033;-20
2022/03/02 07:24:12;;;;;;;20.17;12.98;;;;;;;3.81;65.66;100588.53;5009963;28;20055;-21
2022/03/02 07:26:37;;;;;;;22.05;14.18;;;;;;;3.67;67.11;100589.16;5027358;28;20060;-20
2022/03/02 07:29:02;;;;;;;22.75;14.10;;;;;;;4.02;66.25;100581.00;4993234;28;20033;-20
2022/03/02 07:31:28;;;;;;;30.08;19.05;;;;;;;3.96;65.54;100581.66;4994574;28;20036;-21
2022/03/02 07:33:53;;;;;;;23.60;15.25;;;;;;;4.43;64.17;100570.44;5031709;28;20064;-20
2022/03/02 07:36:22;;;;;;;22.45;14.02;;;;;;;4.55;61.81;100551.59;4997202;28;20041;-21
2022/03/02 07:38:48;;;;;;;20.58;12.98;;;;;;;4.67;61.51;100571.41;5013546;28;20087;-20
2022/03/02 07:41:13;;;;;;;38.17;19.13;;;;;;;4.75;62.46;100552.06;4996868;28;20664;-20
2022/03/02 07:43:39;;;;;;;26.95;13.70;;;;;;;4.83;61.78;100534.38;5031278;28;20043;-21
2022/03/02 07:46:05;;;;;;;20.58;12.55;;;;;;;5.10;60.23;100540.22;5031371;28;20102;-20
2022/03/02 07:48:31;;;;;;;18.60;12.48;;;;;;;5.24;59.48;100544.78;5013723;28;20497;-20
2022/03/02 07:50:58;;;;;;;21.42;12.93;;;;;;;5.01;59.23;100551.84;5030967;28;20117;-20
2022/03/02 07:53:25;;;;;;;36.80;17.90;;;;;;;4.80;58.92;100532.09;5013177;28;20678;-22
2022/03/02 07:55:50;;;;;;;23.67;13.23;;;;;;;4.66;59.48;100540.72;5013345;28;20444;-21
2022/03/02 07:58:16;;;;;;;23.52;12.63;;;;;;;4.59;60.30;100537.88;5013168;28;20038;-20
2022/03/02 08:00:41;;;;;;;36.05;18.05;;;;;;;4.71;59.06;100533.09;5031330;28;20401;-20
2022/03/02 08:03:07;;;;;;;24.23;12.93;;;;;;;5.01;59.23;100523.59;5012939;28;20037;-20
2022/03/02 08:05:32;;;;;;;27.95;14.25;;;;;;;4.95;58.18;100515.50;5029759;28;20675;-20
2022/03/02 08:07:59;;;;;;;22.40;13.35;;;;;;;4.81;59.31;100514.41;5013116;28;20041;-20
2022/03/02 08:10:26;;;;;;;98.13;39.75;;;;;;;4.93;60.96;100515.69;5013087;28;20034;-20
2022/03/02 08:12:51;;;;;;;30.73;15.65;;;;;;;4.83;59.11;100529.09;5030794;28;20429;-21
2022/03/02 08:15:18;;;;;;;25.30;14.63;;;;;;;4.66;57.87;100516.94;5030791;28;20037;-20
2022/03/02 08:17:44;;;;;;;26.63;15.30;;;;;;;4.58;60.75;100495.81;5013300;28;20063;-20
2022/03/02 08:20:10;;;;;;;27.48;14.98;;;;;;;4.78;58.34;100499.72;4996480;28;20416;-20
2022/03/02 08:22:36;;;;;;;32.22;14.98;;;;;;;5.07;57.94;100508.84;5030573;28;20021;-21
2022/03/02 08:25:12;;;;;;;30.67;15.20;;;;;;;4.80;59.73;100492.44;4996027;28;20461;-24
2022/03/02 08:27:39;;;;;;;17.60;11.07;;;;;;;4.99;58.90;100503.59;4992972;28;20037;-20
2022/03/02 08:30:06;;;;;;;21.90;12.02;;;;;;;5.15;58.50;100474.44;4992928;28;20037;-21
2022/03/02 08:32:41;;;;;;;28.58;14.27;;;;;;;5.36;58.13;100480.94;4992768;28;20030;-20
2022/03/02 08:35:07;;;;;;;128.18;55.78;;;;;;;5.89;59.96;100483.72;5008800;28;20056;-20
2022/03/02 08:37:33;;;;;;;22.65;12.80;;;;;;;6.00;56.63;100460.31;5010487;28;20040;-20
2022/03/02 08:39:59;;;;;;;23.33;13.35;;;;;;;6.22;57.61;100469.22;4992432;28;20488;-21
2022/03/02 08:42:24;;;;;;;21.13;11.95;;;;;;;6.20;55.90;100473.88;4991891;28;20399;-21
2022/03/02 08:44:50;;;;;;;25.23;13.75;;;;;;;6.27;56.26;100475.78;5009235;28;20443;-20
2022/03/02 08:47:15;;;;;;;28.75;14.80;;;;;;;6.30;55.20;100463.03;5010275;28;20431;-21
2022/03/02 08:49:41;;;;;;;21.50;12.55;;;;;;;6.55;56.61;100457.47;5010484;28;20029;-22
2022/03/02 08:52:06;;;;;;;20.63;12.73;;;;;;;6.64;55.76;100470.44;5008691;28;20041;-20
2022/03/02 08:54:35;;;;;;;25.98;13.90;;;;;;;6.18;56.40;100459.16;5010563;28;20040;-20
2022/03/02 08:57:02;;;;;;;19.75;11.50;;;;;;;6.29;53.45;100456.06;5010152;28;20032;-20
2022/03/02 08:59:27;;;;;;;21.92;12.60;;;;;;;6.30;55.55;100447.13;4992662;28;20586;-20
2022/03/02 09:01:53;;;;;;;20.73;12.32;;;;;;;6.83;52.83;100453.16;5010085;28;20036;-20
2022/03/02 09:04:21;;;;;;;20.40;12.25;;;;;;;6.66;53.23;100445.56;5009240;28;20018;-20
2022/03/02 09:06:46;;;;;;;20.35;11.70;;;;;;;6.62;55.42;100445.13;5008700;28;20026;-20
2022/03/02 09:09:12;;;;;;;18.13;11.77;;;;;;;6.54;54.38;100448.69;4992406;28;20030;-21
2022/03/02 09:11:42;;;;;;;16.45;11.70;;;;;;;6.43;58.14;100420.00;5009830;28;20099;-21
2022/03/02 09:14:07;;;;;;;17.92;11.52;;;;;;;6.99;54.53;100435.41;5008624;28;20109;-20
2022/03/02 09:16:33;;;;;;;16.10;10.57;;;;;;;6.95;53.21;100426.19;4992468;28;20038;-20
2022/03/02 09:18:59;;;;;;;16.38;9.93;;;;;;;6.58;51.36;100438.56;5009354;28;20474;-20
2022/03/02 09:21:25;;;;;;;17.33;10.90;;;;;;;6.99;52.82;100436.22;5008143;28;20045;-20
2022/03/02 09:23:50;;;;;;;16.25;11.13;;;;;;;7.03;54.24;100426.88;4992283;28;20040;-21
2022/03/02 09:26:17;;;;;;;30.65;16.98;;;;;;;7.08;55.75;100421.00;4992129;28;20030;-21
2022/03/02 09:28:44;;;;;;;17.15;10.43;;;;;;;7.20;52.45;100411.56;5008451;28;20376;-20
2022/03/02 09:31:11;;;;;;;16.92;10.25;;;;;;;7.30;51.04;100408.59;5008169;28;20037;-20
2022/03/02 09:33:37;;;;;;;16.13;10.13;;;;;;;7.77;53.44;100412.50;4992006;28;20026;-20
2022/03/02 09:36:04;;;;;;;17.80;11.00;;;;;;;7.85;50.76;100398.25;4975488;28;20426;-22
2022/03/02 09:38:32;;;;;;;14.48;9.63;;;;;;;8.07;50.86;100395.53;5009823;28;20037;-20
2022/03/02 09:41:05;;;;;;;15.77;10.67;;;;;;;8.25;50.30;100378.09;4991867;28;20049;-21
2022/03/02 09:43:32;;;;;;;16.13;11.00;;;;;;;8.81;48.84;100389.63;5008304;28;20030;-20
2022/03/02 09:45:58;;;;;;;14.05;10.00;;;;;;;8.69;49.89;100389.38;5007982;28;20026;-21
2022/03/02 09:48:47;;;;;;;14.48;10.10;;;;;;;8.52;47.68;100382.75;4991475;28;20605;-20
2022/03/02 09:51:12;;;;;;;13.35;9.27;;;;;;;8.56;49.75;100366.22;4991850;28;20026;-20
2022/03/02 09:53:38;;;;;;;13.35;9.20;;;;;;;8.43;48.72;100372.28;5009063;28;20810;-20
2022/03/02 09:56:05;;;;;;;16.52;10.82;;;;;;;9.00;49.80;100362.25;4990112;28;20034;-20
2022/03/02 09:58:31;;;;;;;13.38;8.90;;;;;;;8.63;48.85;100344.97;4991206;28;20405;-20
2022/03/02 10:00:58;;;;;;;10.57;6.90;;;;;;;8.76;42.74;100374.25;4990511;28;20489;-20
2022/03/02 10:03:33;;;;;;;13.57;8.30;;;;;;;8.52;46.01;100361.47;5009199;28;20080;-21
2022/03/02 10:06:01;;;;;;;11.25;7.38;;;;;;;8.72;45.37;100349.06;4991270;28;20419;-21
2022/03/02 10:08:30;;;;;;;11.75;7.68;;;;;;;8.90;44.01;100353.84;5007766;28;20026;-20
2022/03/02 10:10:55;;;;;;;;;;;;;;;8.74;44.23;100341.72;4991961;28;20508;-21
2022/03/02 10:13:22;;;;;;;11.70;7.80;;;;;;;8.92;43.59;100340.34;5007467;28;19929;-20
2022/03/02 10:15:47;;;;;;;11.85;7.47;;;;;;;9.29;43.72;100322.19;5008985;28;20052;-21
2022/03/02 10:18:13;;;;;;;9.75;7.00;;;;;;;9.70;43.02;100331.81;5008868;28;20530;-21
2022/03/02 10:20:43;;;;;;;10.52;7.35;;;;;;;9.45;40.22;100308.47;5007609;28;20026;-20
2022/03/02 10:23:24;;;;;;;10.45;7.45;;;;;;;9.38;40.08;100328.97;5007115;28;20042;-20
2022/03/02 10:26:15;;;;;;;10.43;7.13;;;;;;;9.49;43.27;100315.03;5008322;28;20032;-20
2022/03/02 10:28:44;;;;;;;9.80;6.97;;;;;;;9.63;40.72;100321.97;5008594;28;20034;-20
2022/03/02 10:31:29;;;;;;;10.75;7.57;;;;;;;9.53;41.63;100278.97;5008045;28;20033;-21
2022/03/02 10:33:56;;;;;;;11.68;7.93;;;;;;;10.05;40.14;100287.88;4990958;28;20041;-20
2022/03/02 10:36:25;;;;;;;11.20;7.40;;;;;;;10.34;41.88;100295.59;5008032;28;20049;-21
2022/03/02 10:39:04;;;;;;;11.10;7.50;;;;;;;9.94;42.06;100291.19;5008059;28;20033;-20
2022/03/02 10:41:33;;;;;;;11.15;7.50;;;;;;;9.62;41.18;100283.06;4990672;28;20029;-21
2022/03/02 10:44:14;;;;;;;11.13;7.55;;;;;;;10.00;41.57;100266.38;5007024;28;20030;-21
2022/03/02 10:46:41;;;;;;;11.30;7.88;;;;;;;10.28;41.25;100270.59;4990326;28;20490;-20
2022/03/02 10:49:20;;;;;;;10.52;7.57;;;;;;;10.68;40.48;100286.41;5008260;28;20038;-20
2022/03/02 10:51:46;;;;;;;11.27;7.13;;;;;;;10.63;40.53;100257.72;5007012;28;20038;-20
2022/03/02 10:54:17;;;;;;;9.50;6.82;;;;;;;11.04;37.57;100268.94;5008204;28;20032;-21
2022/03/02 10:56:43;;;;;;;10.27;7.03;;;;;;;11.21;39.94;100261.19;5007028;28;20482;-20
2022/03/02 10:59:16;;;;;;;9.35;6.68;;;;;;;10.92;37.19;100249.31;5006455;28;20057;-20
2022/03/02 11:01:42;;;;;;;9.63;6.70;;;;;;;11.60;37.60;100257.34;5008391;28;20108;-20
2022/03/02 11:04:07;;;;;;;10.25;6.93;;;;;;;11.76;37.10;100258.63;5006995;28;20545;-20
2022/03/02 11:06:33;;;;;;;9.75;6.25;;;;;;;11.55;35.43;100238.50;5007755;28;20025;-20
2022/03/02 11:09:00;;;;;;;9.25;5.97;;;;;;;11.36;36.59;100235.00;5007424;28;20522;-22
2022/03/02 11:11:26;;;;;;;8.73;5.97;;;;;;;11.37;36.39;100254.50;5007646;28;20591;-20
2022/03/02 11:13:52;;;;;;;9.60;6.45;;;;;;;11.89;37.47;100236.34;5007983;28;20177;-20
2022/03/02 11:16:19;;;;;;;10.85;6.03;;;;;;;11.57;37.11;100230.28;5006536;28;20029;-20
2022/03/02 11:18:48;;;;;;;10.52;7.10;;;;;;;12.03;36.63;100228.97;5006514;28;20049;-20